Time;durP1;ratioP1;P1;durP2;ratioP2;P2;SDS_P1;SDS_P2;PMS_P1;PMS_P2;Temp;Humidity;BMP_temperature;BMP_pressure;BME280_temperature;BME280_humidity;BME280_pressure;Samples;Min_cycle;Max_cycle;Signal;HPM_P1;HPM_P2
2024/01/19 00:00:13;;;;;;;12.07;6.15;;;-2.30;99.90;;;;;;4912945;29;20024;-78
2024/01/19 00:02:39;;;;;;;11.77;6.18;;;-2.40;99.90;;;;;;4913088;29;20043;-78
2024/01/19 00:05:05;;;;;;;16.33;6.78;;;-2.40;99.90;;;;;;4913088;29;20032;-78
2024/01/19 00:07:30;;;;;;;16.02;6.50;;;-2.40;99.90;;;;;;4913694;29;20052;-78
2024/01/19 00:09:56;;;;;;;9.45;6.03;;;-2.40;99.90;;;;;;4914243;29;20359;-78
2024/01/19 00:12:22;;;;;;;11.45;5.38;;;-2.50;99.90;;;;;;4914824;29;20107;-78
2024/01/19 00:14:48;;;;;;;9.60;5.05;;;-2.40;99.90;;;;;;4884669;29;20036;-78
2024/01/19 00:17:13;;;;;;;10.52;5.38;;;-2.40;99.90;;;;;;4905538;29;20517;-78
2024/01/19 00:19:39;;;;;;;8.45;4.57;;;-2.40;99.90;;;;;;4910177;29;20090;-78
2024/01/19 00:22:05;;;;;;;10.15;5.78;;;-2.50;99.90;;;;;;4902370;29;20043;-78
2024/01/19 00:24:30;;;;;;;9.80;5.85;;;-2.50;99.90;;;;;;4901092;29;20040;-78
2024/01/19 00:26:56;;;;;;;9.73;6.15;;;-2.60;99.90;;;;;;4901242;29;20070;-78
2024/01/19 00:29:22;;;;;;;10.30;5.78;;;-2.70;99.90;;;;;;4922200;29;20044;-78
2024/01/19 00:31:48;;;;;;;12.20;6.15;;;-2.80;99.90;;;;;;4919014;29;20048;-78
2024/01/19 00:34:15;;;;;;;10.20;5.80;;;-2.80;99.90;;;;;;4918669;29;20572;-78
2024/01/19 00:36:41;;;;;;;10.50;5.88;;;-2.90;99.90;;;;;;4892158;29;20054;-79
2024/01/19 00:39:07;;;;;;;9.13;5.35;;;-2.80;99.90;;;;;;4914062;29;20036;-79
2024/01/19 00:41:32;;;;;;;9.77;5.50;;;-2.80;99.90;;;;;;4917842;29;20116;-78
2024/01/19 00:43:58;;;;;;;11.38;5.20;;;-2.70;99.90;;;;;;4901913;29;20087;-79
2024/01/19 00:46:24;;;;;;;13.18;5.47;;;-2.70;99.90;;;;;;4925475;29;20389;-78
2024/01/19 00:48:50;;;;;;;11.20;6.50;;;-2.70;99.90;;;;;;4921750;29;20039;-78
2024/01/19 00:51:16;;;;;;;9.48;5.50;;;-2.60;99.90;;;;;;4916427;29;20343;-78
2024/01/19 00:53:43;;;;;;;11.10;6.10;;;-2.60;99.90;;;;;;4914077;29;20140;-78
2024/01/19 00:56:09;;;;;;;13.63;6.50;;;-2.60;99.90;;;;;;4920145;29;20527;-77
2024/01/19 00:58:37;;;;;;;13.75;6.35;;;-2.60;99.90;;;;;;4915809;29;20031;-79
2024/01/19 01:01:04;;;;;;;16.67;6.75;;;-2.60;99.90;;;;;;4919175;29;20129;-79
2024/01/19 01:03:30;;;;;;;12.98;6.30;;;-2.60;99.90;;;;;;4907792;29;20027;-78
2024/01/19 01:05:57;;;;;;;14.55;7.13;;;-2.70;99.90;;;;;;4885534;29;20424;-78
2024/01/19 01:08:25;;;;;;;12.85;6.95;;;-2.70;99.90;;;;;;4917860;29;20466;-79
2024/01/19 01:10:51;;;;;;;11.95;6.32;;;-2.70;99.90;;;;;;4905698;29;20039;-79
2024/01/19 01:13:17;;;;;;;10.90;5.97;;;-2.70;99.90;;;;;;4921569;29;20032;-78
2024/01/19 01:15:43;;;;;;;14.32;7.05;;;-2.70;99.90;;;;;;4922175;29;20039;-78
2024/01/19 01:18:09;;;;;;;13.82;7.30;;;-2.80;99.90;;;;;;4912775;29;20040;-78
2024/01/19 01:20:34;;;;;;;18.70;7.43;;;-2.80;99.90;;;;;;4901434;29;20131;-78
2024/01/19 01:23:00;;;;;;;19.38;7.72;;;-2.90;99.90;;;;;;4911872;29;20473;-78
2024/01/19 01:25:26;;;;;;;15.85;8.00;;;-2.80;99.90;;;;;;4916173;29;20028;-78
2024/01/19 01:27:51;;;;;;;18.08;7.30;;;-2.80;99.90;;;;;;4902236;29;20099;-78
2024/01/19 01:30:17;;;;;;;15.57;8.07;;;-2.90;99.90;;;;;;4918659;29;20039;-78
2024/01/19 01:32:43;;;;;;;19.27;8.50;;;-3.00;99.90;;;;;;4919405;29;20079;-78
2024/01/19 01:35:09;;;;;;;20.58;8.80;;;-3.00;99.90;;;;;;4901656;29;20058;-78
2024/01/19 01:37:34;;;;;;;20.42;8.35;;;-3.10;99.90;;;;;;4918537;29;20036;-78
2024/01/19 01:40:00;;;;;;;18.23;8.63;;;-3.10;99.90;;;;;;4917972;29;20073;-78
2024/01/19 01:42:26;;;;;;;13.85;7.07;;;-3.20;99.90;;;;;;4886503;29;20116;-78
2024/01/19 01:44:52;;;;;;;14.90;8.50;;;-3.20;99.90;;;;;;4922598;29;20032;-78
2024/01/19 01:47:17;;;;;;;19.13;8.50;;;-3.20;99.90;;;;;;4891733;29;20032;-78
2024/01/19 01:49:43;;;;;;;16.02;9.05;;;-3.20;99.90;;;;;;4918564;29;20047;-78
2024/01/19 01:52:10;;;;;;;18.73;8.60;;;-3.30;99.90;;;;;;4919857;29;20029;-78
2024/01/19 01:54:36;;;;;;;18.70;8.30;;;-3.30;99.90;;;;;;4921462;29;20465;-79
2024/01/19 01:57:03;;;;;;;16.13;8.07;;;-3.30;99.90;;;;;;4916735;29;20039;-78
2024/01/19 01:59:30;;;;;;;18.98;9.27;;;-3.20;99.90;;;;;;4917263;29;20485;-78
2024/01/19 02:01:56;;;;;;;17.83;8.95;;;-3.10;99.90;;;;;;4916638;29;20461;-78
2024/01/19 02:04:23;;;;;;;18.10;9.65;;;-3.10;99.90;;;;;;4915919;29;20065;-78
2024/01/19 02:06:49;;;;;;;17.15;9.43;;;-3.00;99.90;;;;;;4902771;29;20060;-78
2024/01/19 02:09:16;;;;;;;18.52;9.68;;;-3.00;99.90;;;;;;4919353;29;20036;-79
2024/01/19 02:11:42;;;;;;;20.20;9.80;;;-3.00;99.90;;;;;;4918987;29;20548;-79
2024/01/19 02:14:09;;;;;;;18.15;8.65;;;-3.00;99.90;;;;;;4921176;29;20783;-79
2024/01/19 02:16:35;;;;;;;21.73;10.07;;;-3.20;99.90;;;;;;4896473;29;20050;-79
2024/01/19 02:19:01;;;;;;;21.33;9.48;;;-3.20;99.90;;;;;;4921428;29;20032;-78
2024/01/19 02:21:27;;;;;;;21.50;9.73;;;-3.20;99.90;;;;;;4924965;29;20032;-78
2024/01/19 02:23:53;;;;;;;19.15;9.70;;;-3.30;99.90;;;;;;4917971;29;20539;-78
2024/01/19 02:26:19;;;;;;;20.13;9.43;;;-3.30;99.90;;;;;;4925961;29;20107;-78
2024/01/19 02:28:45;;;;;;;19.20;10.30;;;-3.30;99.90;;;;;;4920159;29;20032;-78
2024/01/19 02:31:10;;;;;;;18.08;9.75;;;-3.30;99.90;;;;;;4916349;29;20757;-78
2024/01/19 02:33:36;;;;;;;17.65;9.00;;;-3.30;99.90;;;;;;4887806;29;20047;-78
2024/01/19 02:36:02;;;;;;;21.23;10.50;;;-3.30;99.90;;;;;;4923511;29;20501;-78
2024/01/19 02:38:28;;;;;;;22.38;9.80;;;-3.30;99.90;;;;;;4921661;29;20040;-78
2024/01/19 02:40:54;;;;;;;18.45;10.05;;;-3.30;99.90;;;;;;4920320;29;20035;-78
2024/01/19 02:43:19;;;;;;;20.92;9.82;;;-3.20;99.90;;;;;;4922070;29;20111;-77
2024/01/19 02:45:45;;;;;;;20.40;10.35;;;-3.20;99.90;;;;;;4922004;29;20628;-78
2024/01/19 02:48:12;;;;;;;20.42;10.85;;;-3.00;99.90;;;;;;4918369;29;20028;-78
2024/01/19 02:50:38;;;;;;;22.00;10.27;;;-3.00;99.90;;;;;;4917944;29;20505;-78
2024/01/19 02:53:04;;;;;;;17.90;9.98;;;-3.00;99.90;;;;;;4914934;29;20277;-78
2024/01/19 02:55:29;;;;;;;18.30;10.35;;;-3.00;99.90;;;;;;4908795;29;20051;-78
2024/01/19 02:57:56;;;;;;;17.20;9.48;;;-3.00;99.90;;;;;;4909802;29;20039;-78
2024/01/19 03:00:42;;;;;;;20.38;10.32;;;-3.00;99.90;;;;;;4926255;29;20589;-78
2024/01/19 03:03:08;;;;;;;16.92;9.52;;;-2.90;99.90;;;;;;4905823;29;20032;-78
2024/01/19 03:05:34;;;;;;;16.90;9.65;;;-3.00;99.90;;;;;;4920467;29;20027;-78
2024/01/19 03:08:00;;;;;;;21.33;10.52;;;-3.00;99.90;;;;;;4923319;29;20461;-78
2024/01/19 03:10:25;;;;;;;19.08;9.68;;;-3.00;99.90;;;;;;4903051;29;20109;-78
2024/01/19 03:12:51;;;;;;;26.35;10.98;;;-3.00;99.90;;;;;;4917776;29;20028;-78
2024/01/19 03:15:17;;;;;;;21.90;10.77;;;-3.00;99.90;;;;;;4921066;29;20396;-78
2024/01/19 03:17:42;;;;;;;20.65;9.65;;;-3.10;99.90;;;;;;4902429;29;20044;-78
2024/01/19 03:20:13;;;;;;;21.20;9.82;;;-3.10;99.90;;;;;;4918175;29;20032;-78
2024/01/19 03:22:39;;;;;;;19.23;9.30;;;-3.10;99.90;;;;;;4918090;29;20451;-78
2024/01/19 03:25:23;;;;;;;18.80;9.95;;;-3.10;99.90;;;;;;4919862;29;20354;-78
2024/01/19 03:27:58;;;;;;;17.80;9.45;;;-3.10;99.90;;;;;;4905346;29;20044;-78
2024/01/19 03:30:24;;;;;;;19.52;9.65;;;-3.20;99.90;;;;;;4921650;29;20047;-78
2024/01/19 03:32:49;;;;;;;21.50;10.38;;;-3.30;99.90;;;;;;4875092;29;20129;-77
2024/01/19 03:35:15;;;;;;;24.10;11.32;;;-3.20;99.90;;;;;;4917423;29;20032;-78
2024/01/19 03:37:42;;;;;;;23.92;11.80;;;-3.20;99.90;;;;;;4898109;29;20370;-78
2024/01/19 03:40:09;;;;;;;25.90;11.40;;;-3.10;99.90;;;;;;4921767;29;20039;-78
2024/01/19 03:42:35;;;;;;;19.67;10.52;;;-3.20;99.90;;;;;;4916028;29;20051;-78
2024/01/19 03:45:01;;;;;;;22.40;11.43;;;-3.20;99.90;;;;;;4915654;29;20107;-78
2024/01/19 03:47:28;;;;;;;22.30;11.48;;;-3.20;99.90;;;;;;4915714;29;20076;-78
2024/01/19 03:49:53;;;;;;;22.52;11.60;;;-3.20;99.90;;;;;;4915049;29;20485;-78
2024/01/19 03:52:19;;;;;;;21.60;11.90;;;-3.10;99.90;;;;;;4912159;29;20031;-78
2024/01/19 03:54:51;;;;;;;22.20;11.07;;;-3.10;99.90;;;;;;4917372;29;20031;-78
2024/01/19 03:57:17;;;;;;;23.63;10.75;;;-3.10;99.90;;;;;;4916279;29;20031;-78
2024/01/19 03:59:42;;;;;;;18.48;9.57;;;-3.00;99.90;;;;;;4915322;29;20111;-78
2024/01/19 04:02:08;;;;;;;23.27;11.25;;;-3.00;99.90;;;;;;4897880;29;20020;-78
2024/01/19 04:04:34;;;;;;;20.48;10.70;;;-2.90;99.90;;;;;;4916283;29;20020;-78
2024/01/19 04:07:00;;;;;;;21.33;10.60;;;-2.90;99.90;;;;;;4914913;29;20060;-78
2024/01/19 04:09:26;;;;;;;20.60;10.60;;;-2.80;99.90;;;;;;4913288;29;20040;-79
2024/01/19 04:11:51;;;;;;;19.00;10.27;;;-2.90;99.90;;;;;;4898873;29;20028;-78
2024/01/19 04:14:17;;;;;;;19.13;9.95;;;-2.90;99.90;;;;;;4915428;29;20071;-77
2024/01/19 04:16:43;;;;;;;18.27;10.32;;;-2.90;99.90;;;;;;4903557;29;20032;-78
2024/01/19 04:19:18;;;;;;;16.00;9.30;;;-2.90;99.90;;;;;;4904711;29;20066;-77
2024/01/19 04:21:44;;;;;;;;;;;-2.80;99.90;;;;;;4880985;29;20323;-78
2024/01/19 04:24:09;;;;;;;20.52;10.27;;;-2.80;99.90;;;;;;4896351;29;19950;-78
2024/01/19 04:26:35;;;;;;;19.20;9.93;;;-2.70;99.90;;;;;;4898558;29;20047;-78
2024/01/19 04:29:01;;;;;;;20.85;10.68;;;-2.70;99.90;;;;;;4879668;29;20056;-78
2024/01/19 04:31:27;;;;;;;19.52;10.00;;;-2.80;99.90;;;;;;4909214;29;20115;-78
2024/01/19 04:33:53;;;;;;;18.67;9.32;;;-2.80;99.90;;;;;;4914199;29;20071;-77
2024/01/19 04:36:19;;;;;;;18.90;9.82;;;-2.90;99.90;;;;;;4921107;29;20059;-77
2024/01/19 04:38:48;;;;;;;21.80;10.35;;;-2.90;99.90;;;;;;4887205;29;20043;-78
2024/01/19 04:41:14;;;;;;;20.10;10.13;;;-2.90;99.90;;;;;;4914920;29;20028;-78
2024/01/19 04:43:40;;;;;;;21.92;11.25;;;-2.90;99.90;;;;;;4899528;29;20046;-78
2024/01/19 04:46:06;;;;;;;20.30;10.55;;;-2.90;99.90;;;;;;4899509;29;20181;-77
2024/01/19 04:48:50;;;;;;;20.65;9.77;;;-3.00;99.90;;;;;;4913425;29;20051;-78
2024/01/19 04:51:16;;;;;;;20.63;10.07;;;-3.00;99.90;;;;;;4916825;29;20036;-77
2024/01/19 04:53:41;;;;;;;15.85;9.50;;;-3.10;99.90;;;;;;4917848;29;20123;-78
2024/01/19 04:56:07;;;;;;;20.17;9.98;;;-3.20;99.90;;;;;;4896868;29;20032;-78
2024/01/19 04:58:36;;;;;;;18.77;10.30;;;-3.30;99.90;;;;;;4898959;29;20044;-77
2024/01/19 05:01:03;;;;;;;19.52;10.07;;;-3.50;99.90;;;;;;4894673;29;20028;-78
2024/01/19 05:03:30;;;;;;;17.63;9.85;;;-3.50;99.90;;;;;;4911688;29;20063;-78
2024/01/19 05:05:55;;;;;;;25.42;11.25;;;-3.60;99.90;;;;;;4916255;29;20024;-77
2024/01/19 05:08:21;;;;;;;24.77;10.52;;;-3.60;99.90;;;;;;4911819;29;20035;-79
2024/01/19 05:10:48;;;;;;;20.23;10.75;;;-3.70;99.90;;;;;;4918881;29;20020;-77
2024/01/19 05:13:14;;;;;;;21.50;9.95;;;-3.80;99.90;;;;;;4914264;29;20115;-78
2024/01/19 05:15:49;;;;;;;21.92;10.82;;;-3.90;99.90;;;;;;4900075;29;20478;-78
2024/01/19 05:18:14;;;;;;;18.70;9.77;;;-4.10;99.90;;;;;;4863699;29;20047;-77
2024/01/19 05:20:40;;;;;;;19.23;9.93;;;-4.20;99.90;;;;;;4912677;29;20032;-78
2024/01/19 05:23:06;;;;;;;20.52;9.43;;;-4.30;99.90;;;;;;4913063;29;20076;-78
2024/01/19 05:25:32;;;;;;;20.05;10.27;;;-4.40;99.90;;;;;;4917752;29;20118;-78
2024/01/19 05:27:58;;;;;;;18.83;10.30;;;-4.40;99.90;;;;;;4914461;29;20545;-77
2024/01/19 05:30:24;;;;;;;19.40;9.55;;;-4.50;99.90;;;;;;4913705;29;20028;-78
2024/01/19 05:32:49;;;;;;;22.23;10.95;;;-4.60;99.90;;;;;;4915531;29;20035;-78
2024/01/19 05:35:15;;;;;;;19.35;10.70;;;-4.60;99.90;;;;;;4881064;29;20033;-78
2024/01/19 05:37:41;;;;;;;18.33;9.43;;;-4.70;99.90;;;;;;4920117;29;20095;-78
2024/01/19 05:40:08;;;;;;;18.58;9.90;;;-4.70;99.90;;;;;;4912266;29;20088;-78
2024/01/19 05:42:34;;;;;;;17.88;9.90;;;-4.70;99.90;;;;;;4916677;29;21458;-78
2024/01/19 05:45:00;;;;;;;21.25;10.45;;;-4.60;99.90;;;;;;4898127;29;20404;-78
2024/01/19 05:47:26;;;;;;;18.05;10.10;;;-4.60;99.90;;;;;;4918510;29;20385;-77
2024/01/19 05:49:52;;;;;;;22.67;10.18;;;-4.50;99.90;;;;;;4900552;29;20047;-78
2024/01/19 05:52:20;;;;;;;20.17;9.73;;;-4.50;99.90;;;;;;4921862;29;20051;-77
2024/01/19 05:54:46;;;;;;;18.95;9.65;;;-4.40;99.90;;;;;;4922325;29;20512;-79
2024/01/19 05:57:12;;;;;;;21.10;11.05;;;-4.40;99.90;;;;;;4914953;29;20040;-78
2024/01/19 05:59:40;;;;;;;22.52;11.07;;;-4.30;99.90;;;;;;4908408;29;20152;-78
2024/01/19 06:02:06;;;;;;;20.52;10.10;;;-4.20;99.90;;;;;;4912284;29;20754;-78
2024/01/19 06:04:33;;;;;;;17.77;9.40;;;-4.10;99.90;;;;;;4913132;29;20035;-78
2024/01/19 06:07:00;;;;;;;19.45;9.65;;;-4.10;99.90;;;;;;4920036;29;20028;-77
2024/01/19 06:09:25;;;;;;;22.90;10.60;;;-4.10;99.90;;;;;;4916184;29;20040;-78
2024/01/19 06:11:57;;;;;;;20.90;10.25;;;-4.00;99.90;;;;;;4889154;29;20047;-78
2024/01/19 06:14:30;;;;;;;21.08;9.98;;;-4.00;99.90;;;;;;4901615;29;20074;-78
2024/01/19 06:16:55;;;;;;;20.42;9.55;;;-4.00;99.90;;;;;;4917535;29;20060;-77
2024/01/19 06:19:21;;;;;;;18.02;10.68;;;-4.00;99.90;;;;;;4921703;29;20051;-78
2024/01/19 06:21:47;;;;;;;19.58;10.23;;;-3.90;99.90;;;;;;4922529;29;20028;-77
2024/01/19 06:24:16;;;;;;;19.73;10.02;;;-3.90;99.90;;;;;;4918379;29;20032;-78
2024/01/19 06:26:46;;;;;;;20.70;10.05;;;-3.80;99.90;;;;;;4911813;29;20036;-78
2024/01/19 06:29:12;;;;;;;23.52;10.73;;;-3.80;99.90;;;;;;4916121;29;20083;-78
2024/01/19 06:31:45;;;;;;;24.35;11.38;;;-3.70;99.90;;;;;;4916288;29;20028;-78
2024/01/19 06:34:12;;;;;;;20.88;9.85;;;-3.60;99.90;;;;;;4913796;29;20043;-78
2024/01/19 06:36:47;;;;;;;24.92;11.23;;;-3.60;99.90;;;;;;4915955;29;20040;-78
2024/01/19 06:39:13;;;;;;;22.70;10.63;;;-3.50;99.90;;;;;;4915585;29;20075;-77
2024/01/19 06:41:43;;;;;;;21.65;11.85;;;-3.50;99.90;;;;;;4912948;29;20044;-76
2024/01/19 06:44:12;;;;;;;28.27;13.30;;;-3.40;99.90;;;;;;4915306;29;20028;-78
2024/01/19 06:46:42;;;;;;;27.00;14.10;;;-3.40;99.90;;;;;;4910323;29;20035;-77
2024/01/19 06:49:19;;;;;;;20.73;11.80;;;-3.30;99.90;;;;;;4897240;29;20040;-76
2024/01/19 06:51:47;;;;;;;21.35;11.20;;;-3.20;99.90;;;;;;4920746;29;20496;-77
2024/01/19 06:54:13;;;;;;;21.20;11.45;;;-3.10;99.90;;;;;;4919781;29;20133;-78
2024/01/19 06:56:38;;;;;;;21.23;10.60;;;-3.10;99.90;;;;;;4917633;29;20060;-76
2024/01/19 06:59:04;;;;;;;17.05;10.27;;;-3.00;99.90;;;;;;4918179;29;20032;-76
2024/01/19 07:01:30;;;;;;;21.98;10.02;;;-3.00;99.90;;;;;;4917743;29;20040;-77
2024/01/19 07:03:56;;;;;;;19.75;10.65;;;-2.90;99.90;;;;;;4878658;29;20036;-76
2024/01/19 07:06:22;;;;;;;19.48;9.75;;;-2.90;99.90;;;;;;4913065;29;20063;-76
2024/01/19 07:08:47;;;;;;;22.48;10.35;;;-2.80;99.90;;;;;;4908136;29;20127;-78
2024/01/19 07:11:13;;;;;;;21.38;10.50;;;-2.80;99.90;;;;;;4913211;29;20040;-78
2024/01/19 07:13:39;;;;;;;19.25;9.68;;;-2.70;99.90;;;;;;4918456;29;20040;-79
2024/01/19 07:16:07;;;;;;;22.67;10.57;;;-2.70;99.90;;;;;;4884016;29;20414;-78
2024/01/19 07:18:35;;;;;;;21.60;10.80;;;-2.60;99.90;;;;;;4910070;29;20048;-77
2024/01/19 07:21:00;;;;;;;19.38;9.90;;;-2.60;99.90;;;;;;4915147;29;20036;-77
2024/01/19 07:23:26;;;;;;;21.33;9.93;;;-2.60;99.90;;;;;;4921650;29;20033;-78
2024/01/19 07:25:52;;;;;;;19.50;9.95;;;-2.50;99.90;;;;;;4900499;29;20493;-78
2024/01/19 07:28:18;;;;;;;19.75;11.25;;;-2.50;99.90;;;;;;4921106;29;20035;-78
2024/01/19 07:30:43;;;;;;;23.20;12.07;;;-2.40;99.90;;;;;;4866503;29;20038;-77
2024/01/19 07:33:09;;;;;;;26.85;11.98;;;-2.40;99.90;;;;;;4915343;29;20040;-77
2024/01/19 07:35:35;;;;;;;22.10;11.75;;;-2.40;99.90;;;;;;4912385;29;20426;-77
2024/01/19 07:38:01;;;;;;;22.40;11.20;;;-2.30;99.90;;;;;;4909649;29;20438;-77
2024/01/19 07:40:26;;;;;;;20.52;10.68;;;-2.30;99.90;;;;;;4912919;29;20060;-77
2024/01/19 07:42:52;;;;;;;22.00;11.57;;;-2.30;99.90;;;;;;4914213;29;20036;-77
2024/01/19 07:45:18;;;;;;;18.55;10.80;;;-2.30;99.90;;;;;;4917726;29;20032;-78
2024/01/19 07:47:43;;;;;;;22.80;11.18;;;-2.30;99.90;;;;;;4917788;29;20034;-79
2024/01/19 07:50:10;;;;;;;21.17;11.48;;;-2.30;99.90;;;;;;4899547;29;20067;-79
2024/01/19 07:52:36;;;;;;;21.02;10.75;;;-2.30;99.90;;;;;;4898770;29;20103;-79
2024/01/19 07:55:02;;;;;;;20.20;10.27;;;-2.20;99.90;;;;;;4913876;29;20036;-79
2024/01/19 07:57:28;;;;;;;16.85;9.90;;;-2.30;99.90;;;;;;4917125;29;20036;-78
2024/01/19 07:59:53;;;;;;;21.33;10.73;;;-2.20;99.90;;;;;;4919490;29;20508;-78
2024/01/19 08:02:19;;;;;;;19.55;11.13;;;-2.20;99.90;;;;;;4912579;29;20054;-78
2024/01/19 08:04:45;;;;;;;21.67;10.48;;;-2.20;99.90;;;;;;4900015;29;20038;-79
2024/01/19 08:07:11;;;;;;;24.08;10.82;;;-2.20;99.90;;;;;;4914125;29;20098;-79
2024/01/19 08:09:36;;;;;;;20.73;10.48;;;-2.20;99.90;;;;;;4912841;29;20145;-78
2024/01/19 08:12:03;;;;;;;17.48;9.32;;;-2.20;99.90;;;;;;4914765;29;20100;-79
2024/01/19 08:14:28;;;;;;;21.60;11.20;;;-2.20;99.90;;;;;;4880702;29;20032;-79
2024/01/19 08:16:54;;;;;;;20.75;10.65;;;-2.10;99.90;;;;;;4898096;29;20215;-78
2024/01/19 08:19:21;;;;;;;20.58;11.00;;;-2.10;99.90;;;;;;4900108;29;20032;-78
2024/01/19 08:21:47;;;;;;;15.18;9.60;;;-2.10;99.90;;;;;;4911973;29;20028;-79
2024/01/19 08:24:12;;;;;;;18.92;9.80;;;-2.00;99.90;;;;;;4894907;29;20119;-78
2024/01/19 08:26:38;;;;;;;17.70;9.55;;;-2.00;99.90;;;;;;4896013;29;20033;-77
2024/01/19 08:29:04;;;;;;;20.90;11.02;;;-1.90;99.90;;;;;;4900410;29;20040;-78
2024/01/19 08:31:30;;;;;;;19.73;10.77;;;-1.90;99.90;;;;;;4899562;29;20119;-78
2024/01/19 08:34:03;;;;;;;19.95;10.75;;;-1.80;99.90;;;;;;4908141;29;20040;-79
2024/01/19 08:36:29;;;;;;;18.33;9.77;;;-1.80;99.90;;;;;;4894759;29;20047;-78
2024/01/19 08:38:55;;;;;;;19.33;10.95;;;-1.80;99.90;;;;;;4898594;29;20107;-78
2024/01/19 08:41:23;;;;;;;18.80;11.40;;;-1.70;99.90;;;;;;4882107;29;20466;-78
2024/01/19 08:43:49;;;;;;;23.88;11.30;;;-1.70;99.90;;;;;;4903702;29;20047;-79
2024/01/19 08:46:14;;;;;;;21.83;11.02;;;-1.70;99.90;;;;;;4896626;29;20127;-78
2024/01/19 08:48:42;;;;;;;19.50;11.10;;;-1.70;99.90;;;;;;4913723;29;20040;-78
2024/01/19 08:51:08;;;;;;;19.75;11.07;;;-1.60;99.90;;;;;;4913076;29;20028;-78
2024/01/19 08:53:34;;;;;;;20.38;11.00;;;-1.50;99.90;;;;;;4879468;29;20036;-79
2024/01/19 08:55:59;;;;;;;19.67;10.60;;;-1.30;99.90;;;;;;4897493;29;20036;-79
2024/01/19 08:58:25;;;;;;;19.48;11.05;;;-1.20;99.90;;;;;;4911600;29;20024;-79
2024/01/19 09:00:51;;;;;;;23.15;11.77;;;-1.10;99.90;;;;;;4901670;29;20036;-80
2024/01/19 09:03:17;;;;;;;22.60;12.73;;;-1.00;99.90;;;;;;4914595;29;20032;-78
2024/01/19 09:05:42;;;;;;;20.92;11.48;;;-1.00;99.90;;;;;;4896052;29;20029;-79
2024/01/19 09:08:08;;;;;;;21.17;11.68;;;-1.00;99.90;;;;;;4913668;29;20032;-78
2024/01/19 09:10:34;;;;;;;22.10;11.15;;;-1.00;99.90;;;;;;4897611;29;20059;-79
2024/01/19 09:13:00;;;;;;;19.58;11.40;;;-0.90;99.90;;;;;;4899976;29;20037;-78
2024/01/19 09:15:25;;;;;;;18.88;10.57;;;-0.90;99.90;;;;;;4920380;29;20028;-78
2024/01/19 09:17:51;;;;;;;19.77;11.52;;;-1.00;99.90;;;;;;4900209;29;20485;-79
2024/01/19 09:20:17;;;;;;;21.23;11.38;;;-0.90;99.90;;;;;;4898690;29;20033;-79
2024/01/19 09:22:43;;;;;;;20.65;11.82;;;-0.80;99.90;;;;;;4901043;29;20068;-79
2024/01/19 09:25:11;;;;;;;21.02;11.07;;;-0.80;99.90;;;;;;4898818;29;20032;-78
2024/01/19 09:27:37;;;;;;;21.95;11.73;;;-0.70;99.90;;;;;;4916876;29;20425;-79
2024/01/19 09:30:03;;;;;;;20.92;12.15;;;-0.60;99.90;;;;;;4921207;29;20046;-78
2024/01/19 09:32:29;;;;;;;21.20;12.00;;;-0.40;99.90;;;;;;4920165;29;20040;-79
2024/01/19 09:34:54;;;;;;;26.20;13.82;;;-0.20;99.90;;;;;;4916274;29;20044;-79
2024/01/19 09:37:20;;;;;;;22.17;12.68;;;0.10;99.90;;;;;;4912546;29;20115;-78
2024/01/19 09:39:46;;;;;;;21.17;11.20;;;0.30;99.90;;;;;;4912829;29;20032;-79
2024/01/19 09:42:24;;;;;;;21.05;12.05;;;0.40;99.90;;;;;;4882703;29;20055;-78
2024/01/19 09:45:02;;;;;;;22.70;12.02;;;0.50;99.90;;;;;;4912994;29;20028;-77
2024/01/19 09:47:52;;;;;;;20.42;11.05;;;0.50;99.90;;;;;;4913067;29;20051;-78
2024/01/19 09:50:25;;;;;;;21.20;11.57;;;0.50;99.90;;;;;;4911944;29;20157;-78
2024/01/19 09:53:01;;;;;;;19.33;11.85;;;0.50;99.90;;;;;;4914034;29;20115;-77
2024/01/19 09:55:27;;;;;;;19.52;11.18;;;0.50;99.90;;;;;;4918841;29;20032;-78
2024/01/19 09:57:55;;;;;;;19.65;11.18;;;0.40;99.90;;;;;;4915368;29;20028;-79
2024/01/19 10:00:20;;;;;;;20.98;12.32;;;0.20;99.90;;;;;;4897401;29;20043;-79
2024/01/19 10:02:49;;;;;;;20.38;12.00;;;0.10;99.90;;;;;;4914603;29;20032;-78
2024/01/19 10:05:16;;;;;;;20.77;11.52;;;0.10;99.90;;;;;;4914712;29;20038;-79
2024/01/19 10:07:47;;;;;;;18.10;11.07;;;0.00;99.90;;;;;;4915830;29;20099;-77
2024/01/19 10:10:13;;;;;;;20.20;11.32;;;0.00;99.90;;;;;;4880611;29;20044;-78
2024/01/19 10:12:41;;;;;;;20.08;10.55;;;-0.10;99.90;;;;;;4912000;29;20088;-78
2024/01/19 10:15:15;;;;;;;19.25;10.70;;;-0.20;99.90;;;;;;4908519;29;20032;-78
2024/01/19 10:17:42;;;;;;;19.13;11.27;;;-0.20;99.90;;;;;;4913096;29;20066;-78
2024/01/19 10:20:17;;;;;;;18.85;11.40;;;-0.10;99.90;;;;;;4911650;29;20087;-78
2024/01/19 10:22:43;;;;;;;23.73;12.45;;;0.00;99.90;;;;;;4895512;29;20032;-78
2024/01/19 10:25:13;;;;;;;19.23;12.23;;;0.10;99.90;;;;;;4912622;29;20119;-79
2024/01/19 10:27:47;;;;;;;21.42;12.27;;;0.10;99.90;;;;;;4913486;29;20068;-80
2024/01/19 10:30:27;;;;;;;20.98;11.25;;;0.30;99.90;;;;;;4926428;29;20460;-78
2024/01/19 10:33:02;;;;;;;23.35;12.93;;;0.20;99.90;;;;;;4931958;29;20036;-79
2024/01/19 10:35:28;;;;;;;22.23;11.93;;;0.20;99.90;;;;;;4930074;29;20466;-80
2024/01/19 10:38:03;;;;;;;19.85;11.25;;;0.10;99.90;;;;;;4927010;29;20059;-79
2024/01/19 10:40:31;;;;;;;19.13;11.20;;;0.10;99.90;;;;;;4910128;29;20046;-79
2024/01/19 10:42:57;;;;;;;19.85;12.27;;;0.10;99.90;;;;;;4923576;29;20028;-79
2024/01/19 10:45:25;;;;;;;20.90;11.57;;;0.30;99.90;;;;;;4927889;29;20033;-79
2024/01/19 10:47:53;;;;;;;20.90;11.77;;;0.30;99.90;;;;;;4922151;29;20059;-79
2024/01/19 10:50:21;;;;;;;18.00;11.27;;;0.40;99.90;;;;;;4903942;29;20377;-79
2024/01/19 10:52:48;;;;;;;22.55;13.15;;;0.50;99.90;;;;;;4928121;29;20027;-79
2024/01/19 10:55:23;;;;;;;24.40;11.80;;;0.60;99.90;;;;;;4925513;29;20064;-79
2024/01/19 10:57:53;;;;;;;22.73;11.70;;;0.50;99.90;;;;;;4928922;29;20043;-80
2024/01/19 11:00:20;;;;;;;18.02;11.27;;;0.40;99.90;;;;;;4927207;29;20028;-78
2024/01/19 11:02:55;;;;;;;22.00;10.98;;;0.40;99.90;;;;;;4920119;29;20436;-79
2024/01/19 11:05:21;;;;;;;20.98;11.75;;;0.30;99.90;;;;;;4923341;29;20107;-79
2024/01/19 11:07:55;;;;;;;25.45;13.45;;;0.40;99.90;;;;;;4912502;29;20055;-79
2024/01/19 11:10:22;;;;;;;23.05;12.18;;;0.30;99.90;;;;;;4909520;29;20063;-79
2024/01/19 11:12:55;;;;;;;19.90;11.50;;;0.30;99.90;;;;;;4901968;29;20100;-80
2024/01/19 11:15:50;;;;;;;23.65;12.35;;;0.30;99.90;;;;;;4922597;29;20057;-80
2024/01/19 11:18:16;;;;;;;24.63;13.02;;;0.40;99.90;;;;;;4924929;29;20035;-80
2024/01/19 11:20:42;;;;;;;23.55;12.88;;;0.70;99.90;;;;;;4921637;29;20208;-80
2024/01/19 11:23:09;;;;;;;27.10;12.75;;;0.80;99.90;;;;;;4925355;29;20497;-80
2024/01/19 11:25:43;;;;;;;23.65;12.55;;;0.90;99.90;;;;;;4918664;29;20616;-81
2024/01/19 11:28:18;;;;;;;22.50;13.00;;;1.10;99.90;;;;;;4920780;29;20036;-80
2024/01/19 11:30:47;;;;;;;18.55;11.43;;;1.40;99.90;;;;;;4918414;29;20119;-81
2024/01/19 11:33:17;;;;;;;20.35;11.93;;;1.50;99.90;;;;;;4918379;29;20664;-79
2024/01/19 11:35:48;;;;;;;19.45;11.73;;;1.60;99.90;;;;;;4922958;29;20039;-80
2024/01/19 11:38:45;;;;;;;25.40;13.23;;;1.70;99.90;;;;;;4905431;29;20441;-82
2024/01/19 11:41:33;;;;;;;19.77;11.70;;;1.70;99.90;;;;;;4914196;29;20037;-81
2024/01/19 11:44:12;;;;;;;21.52;12.77;;;1.60;99.90;;;;;;4913562;29;20039;-80
2024/01/19 11:46:51;;;;;;;20.40;11.95;;;1.60;99.90;;;;;;4919785;29;20048;-81
2024/01/19 11:49:38;;;;;;;22.00;12.18;;;1.50;99.90;;;;;;4916688;29;20024;-81
2024/01/19 11:52:19;;;;;;;20.27;10.48;;;1.20;99.90;;;;;;4923846;29;20424;-80
2024/01/19 11:54:45;;;;;;;22.75;12.38;;;1.00;99.90;;;;;;4923726;29;20111;-80
2024/01/19 11:57:26;;;;;;;20.95;12.35;;;0.80;99.90;;;;;;4929348;29;20031;-79
2024/01/19 11:59:56;;;;;;;23.50;12.32;;;0.70;99.90;;;;;;4925802;29;20087;-80
2024/01/19 12:02:31;;;;;;;19.13;10.57;;;0.70;99.90;;;;;;4918221;29;20046;-80
2024/01/19 12:05:07;;;;;;;21.33;12.00;;;0.60;99.90;;;;;;4934815;29;20024;-79
2024/01/19 12:07:33;;;;;;;21.65;11.73;;;0.60;99.90;;;;;;4895522;29;20036;-81
2024/01/19 12:10:20;;;;;;;23.67;12.30;;;0.50;99.90;;;;;;4926030;29;20044;-80
2024/01/19 12:12:47;;;;;;;22.70;11.93;;;0.60;99.90;;;;;;4923615;29;20043;-79
2024/01/19 12:15:15;;;;;;;21.83;11.60;;;0.60;99.90;;;;;;4919706;29;20043;-80
2024/01/19 12:17:42;;;;;;;22.15;11.63;;;0.60;99.90;;;;;;4918556;29;20046;-80
2024/01/19 12:20:09;;;;;;;21.13;12.43;;;0.60;99.90;;;;;;4900389;29;20417;-79
2024/01/19 12:22:38;;;;;;;21.98;12.13;;;0.60;99.90;;;;;;4894876;29;20036;-80
2024/01/19 12:25:14;;;;;;;18.85;10.75;;;0.60;99.90;;;;;;4883361;29;20035;-80
2024/01/19 12:27:40;;;;;;;18.98;11.10;;;0.50;99.90;;;;;;4915149;29;20096;-80
2024/01/19 12:30:19;;;;;;;22.65;11.80;;;0.40;99.90;;;;;;4925370;29;20063;-80
2024/01/19 12:32:45;;;;;;;25.88;12.18;;;0.40;99.90;;;;;;4903264;29;20156;-79
2024/01/19 12:35:11;;;;;;;19.73;10.95;;;0.30;99.90;;;;;;4919111;29;20032;-79